createdAt,value
2023-01-19T00:00:12.172Z,1.77
2023-01-19T00:05:06.344Z,1.77
2023-01-19T00:09:59.760Z,1.78
2023-01-19T00:14:52.644Z,1.79
2023-01-19T00:19:45.506Z,1.79
2023-01-19T00:24:38.369Z,1.77
2023-01-19T00:29:33.639Z,1.77
2023-01-19T00:34:26.457Z,1.80
2023-01-19T00:39:19.264Z,1.82
2023-01-19T00:44:13.516Z,1.81
2023-01-19T00:49:06.769Z,1.79
2023-01-19T00:54:04.965Z,1.74
2023-01-19T00:58:57.879Z,1.68
2023-01-19T01:03:50.736Z,1.64
2023-01-19T01:08:43.571Z,1.63
2023-01-19T01:13:36.389Z,1.61
2023-01-19T01:18:29.216Z,1.56
2023-01-19T01:23:23.126Z,1.46
2023-01-19T01:28:16.018Z,1.38
2023-01-19T01:33:09.510Z,1.35
2023-01-19T01:38:02.678Z,1.35
2023-01-19T01:42:55.868Z,1.37
2023-01-19T01:47:51.101Z,1.42
2023-01-19T01:53:06.861Z,1.45
2023-01-19T01:58:05.805Z,1.48
2023-01-19T02:03:00.419Z,1.50
2023-01-19T02:08:34.180Z,1.52
2023-01-19T02:13:27.373Z,1.54
2023-01-19T02:18:22.624Z,1.52
2023-01-19T02:23:22.030Z,1.45
2023-01-19T02:28:16.497Z,1.39
2023-01-19T02:33:09.595Z,1.37
2023-01-19T02:38:03.915Z,1.37
2023-01-19T02:43:01.401Z,1.39
2023-01-19T02:47:54.913Z,1.41
2023-01-19T02:52:47.969Z,1.42
2023-01-19T02:58:05.933Z,1.43
2023-01-19T03:03:06.293Z,1.44
2023-01-19T03:08:05.240Z,1.45
2023-01-19T03:13:07.368Z,1.46
2023-01-19T03:18:03.709Z,1.49
2023-01-19T03:23:05.467Z,1.51
2023-01-19T03:28:00.024Z,1.52
2023-01-19T03:32:58.464Z,1.52
2023-01-19T03:37:55.791Z,1.54
2023-01-19T03:42:51.891Z,1.57
2023-01-19T03:47:45.200Z,1.58
2023-01-19T03:52:38.299Z,1.59
2023-01-19T03:57:31.679Z,1.59
2023-01-19T04:02:25.710Z,1.58
2023-01-19T04:07:18.637Z,1.58
2023-01-19T04:12:11.454Z,1.58
2023-01-19T04:17:04.735Z,1.57
2023-01-19T04:21:58.727Z,1.60
2023-01-19T04:26:53.834Z,1.61
2023-01-19T04:31:46.617Z,1.62
2023-01-19T04:36:39.938Z,1.63
2023-01-19T04:41:32.877Z,1.64
2023-01-19T04:46:26.041Z,1.64
2023-01-19T04:51:19.091Z,1.65
2023-01-19T04:56:12.565Z,1.65
2023-01-19T05:01:09.718Z,1.66
2023-01-19T05:06:03.049Z,1.65
2023-01-19T05:10:57.724Z,1.67
2023-01-19T05:15:50.624Z,1.69
2023-01-19T05:20:43.420Z,1.69
2023-01-19T05:25:36.388Z,1.70
2023-01-19T05:30:29.300Z,1.69
2023-01-19T05:35:31.381Z,1.69
2023-01-19T05:40:28.730Z,1.70
2023-01-19T05:45:21.534Z,1.71
2023-01-19T05:50:14.433Z,1.71
2023-01-19T05:55:07.961Z,1.71
2023-01-19T06:00:00.807Z,1.71
2023-01-19T06:04:54.579Z,1.71
2023-01-19T06:09:47.396Z,1.73
2023-01-19T06:14:40.940Z,1.73
2023-01-19T06:19:33.826Z,1.72
2023-01-19T06:24:26.656Z,1.72
2023-01-19T06:29:19.531Z,1.73
2023-01-19T06:34:12.360Z,1.74
2023-01-19T06:39:06.221Z,1.74
2023-01-19T06:43:59.075Z,1.75
2023-01-19T06:48:51.882Z,1.77
2023-01-19T06:53:45.444Z,1.79
2023-01-19T06:58:38.691Z,1.80
2023-01-19T07:03:32.086Z,1.81
2023-01-19T07:08:25.513Z,1.82
2023-01-19T07:13:18.334Z,1.84
2023-01-19T07:18:11.121Z,1.85
2023-01-19T07:23:04.274Z,1.88
2023-01-19T07:28:01.438Z,1.91
2023-01-19T07:32:58.787Z,1.93
2023-01-19T07:37:52.046Z,1.95
2023-01-19T07:42:52.155Z,2.00
2023-01-19T07:47:49.876Z,2.06
2023-01-19T07:52:43.163Z,2.10
2023-01-19T07:57:36.985Z,2.15
2023-01-19T08:02:30.320Z,2.18
2023-01-19T08:07:23.185Z,2.22
2023-01-19T08:12:16.044Z,2.24
2023-01-19T08:17:08.828Z,2.27
2023-01-19T08:22:01.717Z,2.31
2023-01-19T08:27:00.636Z,2.34
2023-01-19T08:31:55.922Z,2.36
2023-01-19T08:36:49.399Z,2.38
2023-01-19T08:41:42.285Z,2.39
2023-01-19T08:46:35.142Z,2.42
2023-01-19T08:51:27.928Z,2.44
2023-01-19T08:56:20.937Z,2.47
2023-01-19T09:01:17.108Z,2.51
2023-01-19T09:06:14.988Z,2.52
2023-01-19T09:11:12.534Z,2.53
2023-01-19T09:16:07.804Z,2.55
2023-01-19T09:21:00.968Z,2.56
2023-01-19T09:25:59.589Z,2.59
2023-01-19T09:30:52.765Z,2.65
2023-01-19T09:35:47.641Z,2.76
2023-01-19T09:40:51.852Z,2.85
2023-01-19T09:46:05.421Z,2.87
2023-01-19T09:51:03.463Z,2.87
2023-01-19T09:55:56.284Z,2.95
2023-01-19T10:01:00.401Z,3.06
2023-01-19T10:06:01.170Z,3.11
2023-01-19T10:10:56.196Z,3.11
2023-01-19T10:15:57.963Z,3.11
2023-01-19T10:20:56.494Z,3.10
2023-01-19T10:25:49.422Z,3.10
2023-01-19T10:30:46.078Z,3.09
2023-01-19T10:35:38.964Z,3.13
2023-01-19T10:40:41.402Z,3.15
2023-01-19T10:45:36.764Z,3.18
2023-01-19T10:50:33.260Z,3.22
2023-01-19T10:55:26.706Z,3.22
2023-01-19T11:00:42.420Z,3.23
2023-01-19T11:05:35.560Z,3.22
2023-01-19T11:10:31.136Z,3.25
2023-01-19T11:15:29.864Z,3.27
2023-01-19T11:20:29.497Z,3.29
2023-01-19T11:25:32.788Z,3.27
2023-01-19T11:30:27.501Z,3.27
2023-01-19T11:35:33.120Z,3.28
2023-01-19T11:40:25.956Z,3.27
2023-01-19T11:45:20.497Z,3.22
2023-01-19T11:50:28.171Z,3.21
2023-01-19T11:55:44.889Z,3.21
2023-01-19T12:00:44.132Z,3.19
2023-01-19T12:05:40.555Z,3.22
2023-01-19T12:10:41.718Z,3.23
2023-01-19T12:15:43.157Z,3.21
2023-01-19T12:20:44.519Z,3.20
2023-01-19T12:25:54.839Z,3.18
2023-01-19T12:30:47.945Z,3.18
2023-01-19T12:36:03.123Z,3.20
2023-01-19T12:41:27.791Z,3.21
2023-01-19T12:46:29.243Z,3.23
2023-01-19T12:51:26.708Z,3.21
2023-01-19T12:56:20.223Z,3.20
2023-01-19T13:01:16.677Z,3.18
2023-01-19T13:06:09.628Z,3.15
2023-01-19T13:11:03.039Z,3.11
2023-01-19T13:15:58.462Z,3.04
2023-01-19T13:20:56.365Z,3.02
2023-01-19T13:25:53.515Z,2.97
2023-01-19T13:30:57.020Z,2.93
2023-01-19T13:35:59.264Z,2.93
2023-01-19T13:40:53.496Z,2.91
2023-01-19T13:45:53.568Z,2.89
2023-01-19T13:51:05.392Z,2.88
2023-01-19T13:56:17.416Z,2.87
2023-01-19T14:01:26.128Z,2.83
2023-01-19T14:06:32.904Z,2.81
2023-01-19T14:11:25.710Z,2.77
2023-01-19T14:16:19.346Z,2.75
2023-01-19T14:21:18.668Z,2.72
2023-01-19T14:26:47.337Z,2.67
2023-01-19T14:31:47.663Z,2.62
2023-01-19T14:36:42.075Z,2.59
2023-01-19T14:41:53.902Z,2.59
2023-01-19T14:46:49.040Z,2.59
2023-01-19T14:51:41.931Z,2.59
2023-01-19T14:56:35.907Z,2.58
2023-01-19T15:01:31.234Z,2.56
2023-01-19T15:06:26.197Z,2.52
2023-01-19T15:11:28.208Z,2.51
2023-01-19T15:16:21.609Z,2.49
2023-01-19T15:21:20.612Z,2.48
2023-01-19T15:26:18.650Z,2.47
2023-01-19T15:31:16.541Z,2.46
2023-01-19T15:36:17.001Z,2.45
2023-01-19T15:41:14.626Z,2.43
2023-01-19T15:46:07.980Z,2.41
2023-01-19T15:51:01.049Z,2.40
2023-01-19T15:55:56.988Z,2.38
2023-01-19T16:00:57.915Z,2.37
2023-01-19T16:05:50.758Z,2.37
2023-01-19T16:10:43.946Z,2.35
2023-01-19T16:15:38.085Z,2.33
2023-01-19T16:20:30.903Z,2.30
2023-01-19T16:25:23.875Z,2.26
2023-01-19T16:30:19.450Z,2.25
2023-01-19T16:35:12.932Z,2.22
2023-01-19T16:40:06.056Z,2.21
2023-01-19T16:44:58.879Z,2.19
2023-01-19T16:49:51.698Z,2.18
2023-01-19T16:54:44.905Z,2.16
2023-01-19T16:59:39.617Z,2.14
2023-01-19T17:04:32.913Z,2.11
2023-01-19T17:09:25.745Z,2.09
2023-01-19T17:14:21.030Z,2.09
2023-01-19T17:19:19.044Z,2.08
2023-01-19T17:24:11.941Z,2.06
2023-01-19T17:29:10.243Z,2.04
2023-01-19T17:34:03.463Z,2.02
2023-01-19T17:39:01.431Z,2.01
2023-01-19T17:43:54.687Z,1.99
2023-01-19T17:48:53.520Z,1.96
2023-01-19T17:53:46.331Z,1.91
2023-01-19T17:58:40.248Z,1.87
2023-01-19T18:03:33.052Z,1.85
2023-01-19T18:08:26.083Z,1.81
2023-01-19T18:13:18.871Z,1.81
2023-01-19T18:18:11.635Z,1.79
2023-01-19T18:23:04.410Z,1.79
2023-01-19T18:27:57.191Z,1.78
2023-01-19T18:32:51.665Z,1.76
2023-01-19T18:37:44.523Z,1.73
2023-01-19T18:42:37.401Z,1.70
2023-01-19T18:47:30.998Z,1.67
2023-01-19T18:52:23.833Z,1.64
2023-01-19T18:57:17.969Z,1.63
2023-01-19T19:02:13.843Z,1.61
2023-01-19T19:07:06.719Z,1.59
2023-01-19T19:11:59.950Z,1.56
2023-01-19T19:16:52.881Z,1.51
2023-01-19T19:21:45.772Z,1.47
2023-01-19T19:26:38.963Z,1.45
2023-01-19T19:31:32.153Z,1.44
2023-01-19T19:36:26.640Z,1.42
2023-01-19T19:41:22.417Z,1.40
2023-01-19T19:46:18.007Z,1.37
2023-01-19T19:51:18.581Z,1.35
2023-01-19T19:56:14.100Z,1.34
2023-01-19T20:01:16.298Z,1.33
2023-01-19T20:06:15.035Z,1.28
2023-01-19T20:11:14.187Z,1.25
2023-01-19T20:16:11.135Z,1.24
2023-01-19T20:21:13.119Z,1.24
2023-01-19T20:26:07.975Z,1.21
2023-01-19T20:31:14.439Z,1.19
2023-01-19T20:36:07.719Z,1.18
2023-01-19T20:41:01.461Z,1.16
2023-01-19T20:45:54.392Z,1.15
2023-01-19T20:50:47.217Z,1.14
2023-01-19T20:55:40.685Z,1.11
2023-01-19T21:00:34.710Z,1.10
2023-01-19T21:05:28.495Z,1.08
2023-01-19T21:10:22.364Z,1.07
2023-01-19T21:15:15.723Z,1.07
2023-01-19T21:20:09.402Z,1.07
2023-01-19T21:25:02.603Z,1.05
2023-01-19T21:29:55.872Z,1.04
2023-01-19T21:34:49.279Z,1.04
2023-01-19T21:39:42.152Z,1.04
2023-01-19T21:44:36.083Z,1.02
2023-01-19T21:49:28.921Z,1.00
2023-01-19T21:54:21.727Z,1.00
2023-01-19T21:59:16.108Z,1.00
2023-01-19T22:04:08.952Z,1.02
2023-01-19T22:09:01.796Z,1.03
2023-01-19T22:13:55.605Z,1.03
2023-01-19T22:18:56.446Z,1.05
2023-01-19T22:23:52.802Z,1.02
2023-01-19T22:28:45.950Z,1.02
2023-01-19T22:33:38.762Z,1.01
2023-01-19T22:38:31.551Z,1.01
2023-01-19T22:43:24.338Z,1.01
2023-01-19T22:48:17.123Z,0.99
2023-01-19T22:53:10.462Z,0.99
2023-01-19T22:58:03.281Z,0.98
2023-01-19T23:02:56.057Z,0.97
2023-01-19T23:07:48.850Z,0.95
2023-01-19T23:12:41.676Z,0.94
2023-01-19T23:17:35.374Z,0.93
2023-01-19T23:22:28.495Z,0.93
2023-01-19T23:27:21.672Z,0.93
2023-01-19T23:32:14.486Z,0.93
2023-01-19T23:37:07.429Z,0.93
2023-01-19T23:42:00.209Z,0.92
2023-01-19T23:46:52.984Z,0.93
2023-01-19T23:51:45.781Z,0.93
2023-01-19T23:56:39.924Z,0.90
